createdAt,value
2022-11-14T00:00:52.667Z,4.32
2022-11-14T00:03:39.189Z,4.35
2022-11-14T00:06:25.335Z,4.36
2022-11-14T00:09:11.891Z,4.33
2022-11-14T00:11:58.273Z,4.98
2022-11-14T00:14:46.081Z,5.32
2022-11-14T00:17:32.569Z,5.61
2022-11-14T00:20:18.884Z,5.07
2022-11-14T00:23:05.492Z,5.79
2022-11-14T00:25:52.025Z,6.20
2022-11-14T00:28:38.602Z,6.85
2022-11-14T00:31:26.070Z,7.27
2022-11-14T00:34:12.494Z,7.39
2022-11-14T00:36:59.005Z,7.41
2022-11-14T00:39:45.444Z,7.03
2022-11-14T00:42:32.248Z,7.14
2022-11-14T00:45:18.666Z,7.17
2022-11-14T00:48:06.687Z,7.10
2022-11-14T00:50:52.832Z,7.26
2022-11-14T00:53:40.228Z,6.93
2022-11-14T00:56:29.552Z,6.97
2022-11-14T00:59:15.772Z,6.72
2022-11-14T01:02:02.408Z,6.54
2022-11-14T01:04:50.032Z,6.75
2022-11-14T01:07:36.506Z,5.92
2022-11-14T01:10:23.029Z,6.38
2022-11-14T01:13:09.721Z,6.52
2022-11-14T01:15:55.961Z,6.66
2022-11-14T01:18:42.703Z,6.01
2022-11-14T01:21:31.025Z,5.78
2022-11-14T01:24:17.427Z,6.42
2022-11-14T01:27:03.809Z,6.74
2022-11-14T01:29:50.338Z,6.85
2022-11-14T01:32:36.780Z,5.96
2022-11-14T01:35:22.922Z,6.31
2022-11-14T01:38:15.666Z,6.37
2022-11-14T01:41:03.181Z,5.63
2022-11-14T01:43:50.008Z,5.03
2022-11-14T01:46:38.319Z,4.72
2022-11-14T01:49:27.958Z,4.84
2022-11-14T01:52:17.266Z,4.54
2022-11-14T01:55:08.003Z,5.60
2022-11-14T01:57:54.681Z,4.59
2022-11-14T02:00:41.509Z,4.87
2022-11-14T02:03:28.021Z,5.06
2022-11-14T02:06:17.055Z,5.28
2022-11-14T02:09:05.688Z,6.20
2022-11-14T02:11:56.062Z,6.41
2022-11-14T02:14:45.218Z,5.48
2022-11-14T02:17:32.275Z,5.67
2022-11-14T02:20:22.564Z,5.38
2022-11-14T02:23:09.185Z,4.75
2022-11-14T02:25:56.229Z,4.27
2022-11-14T02:28:42.851Z,4.75
2022-11-14T02:31:29.048Z,5.28
2022-11-14T02:34:19.893Z,5.07
2022-11-14T02:37:08.159Z,5.26
2022-11-14T02:39:54.669Z,5.36
2022-11-14T02:42:41.370Z,6.07
2022-11-14T02:45:28.159Z,6.24
2022-11-14T02:48:15.102Z,6.44
2022-11-14T02:51:01.438Z,6.32
2022-11-14T02:53:49.044Z,6.47
2022-11-14T02:56:35.760Z,6.36
2022-11-14T02:59:22.444Z,6.73
2022-11-14T03:02:08.993Z,6.70
2022-11-14T03:04:55.543Z,6.68
2022-11-14T03:07:41.978Z,6.65
2022-11-14T03:10:30.088Z,6.66
2022-11-14T03:13:16.359Z,6.83
2022-11-14T03:16:07.662Z,6.88
2022-11-14T03:18:54.589Z,6.48
2022-11-14T03:21:40.719Z,6.56
2022-11-14T03:24:27.006Z,6.73
2022-11-14T03:27:14.928Z,6.46
2022-11-14T03:30:01.413Z,6.35
2022-11-14T03:32:47.850Z,6.62
2022-11-14T03:35:34.660Z,6.67
2022-11-14T03:38:23.011Z,6.58
2022-11-14T03:41:09.590Z,5.91
2022-11-14T03:43:57.546Z,5.79
2022-11-14T03:46:44.027Z,6.20
2022-11-14T03:49:30.202Z,6.48
2022-11-14T03:52:16.777Z,6.35
2022-11-14T03:55:03.255Z,5.55
2022-11-14T03:57:49.583Z,5.42
2022-11-14T04:00:37.897Z,6.07
2022-11-14T04:03:24.790Z,6.40
2022-11-14T04:06:11.066Z,6.21
2022-11-14T04:08:57.781Z,5.56
2022-11-14T04:11:44.258Z,5.80
2022-11-14T04:14:30.492Z,5.33
2022-11-14T04:17:18.451Z,5.00
2022-11-14T04:20:05.611Z,5.89
2022-11-14T04:22:52.250Z,5.73
2022-11-14T04:25:38.915Z,5.48
2022-11-14T04:28:25.129Z,5.63
2022-11-14T04:31:11.782Z,5.53
2022-11-14T04:33:59.703Z,5.81
2022-11-14T04:36:45.815Z,5.70
2022-11-14T04:39:32.279Z,5.80
2022-11-14T04:42:18.716Z,5.66
2022-11-14T04:45:06.208Z,5.87
2022-11-14T04:47:52.792Z,6.16
2022-11-14T04:50:40.925Z,6.09
2022-11-14T04:53:27.234Z,5.97
2022-11-14T04:56:14.124Z,6.09
2022-11-14T04:59:01.019Z,6.20
2022-11-14T05:01:47.421Z,6.23
2022-11-14T05:04:33.884Z,5.94
2022-11-14T05:07:21.884Z,6.27
2022-11-14T05:10:10.066Z,6.20
2022-11-14T05:12:56.877Z,6.01
2022-11-14T05:15:43.232Z,6.13
2022-11-14T05:18:29.726Z,5.90
2022-11-14T05:21:16.576Z,5.73
2022-11-14T05:24:04.785Z,5.50
2022-11-14T05:26:51.416Z,5.42
2022-11-14T05:29:38.027Z,5.42
2022-11-14T05:32:24.599Z,5.30
2022-11-14T05:35:11.016Z,5.37
2022-11-14T05:38:00.043Z,5.08
2022-11-14T05:40:48.003Z,5.00
2022-11-14T05:43:35.160Z,4.95
2022-11-14T05:46:21.873Z,5.00
2022-11-14T05:49:08.806Z,5.29
2022-11-14T05:51:55.164Z,4.71
2022-11-14T05:54:42.046Z,5.18
2022-11-14T05:57:32.060Z,5.50
2022-11-14T06:00:19.499Z,5.53
2022-11-14T06:03:05.734Z,5.64
2022-11-14T06:05:52.336Z,5.74
2022-11-14T06:08:39.351Z,5.83
2022-11-14T06:11:25.706Z,5.61
2022-11-14T06:14:14.331Z,5.56
2022-11-14T06:17:00.795Z,5.62
2022-11-14T06:19:47.210Z,5.75
2022-11-14T06:22:35.082Z,5.77
2022-11-14T06:25:22.099Z,5.66
2022-11-14T06:28:08.486Z,5.58
2022-11-14T06:31:00.125Z,5.32
2022-11-14T06:33:47.519Z,5.26
2022-11-14T06:36:33.930Z,5.82
2022-11-14T06:39:20.237Z,5.66
2022-11-14T06:42:07.008Z,5.85
2022-11-14T06:44:53.476Z,5.96
2022-11-14T06:47:41.420Z,6.05
2022-11-14T06:50:27.992Z,6.13
2022-11-14T06:53:14.558Z,6.25
2022-11-14T06:56:03.212Z,5.96
2022-11-14T06:58:50.936Z,6.02
2022-11-14T07:01:38.126Z,5.91
2022-11-14T07:04:26.403Z,5.69
2022-11-14T07:07:13.192Z,5.82
2022-11-14T07:09:59.973Z,5.96
2022-11-14T07:12:46.837Z,6.08
2022-11-14T07:15:33.311Z,6.33
2022-11-14T07:18:20.481Z,6.45
2022-11-14T07:21:08.720Z,6.26
2022-11-14T07:23:55.718Z,6.09
2022-11-14T07:26:42.286Z,5.89
2022-11-14T07:29:28.894Z,6.15
2022-11-14T07:32:15.207Z,5.66
2022-11-14T07:35:02.760Z,5.44
2022-11-14T07:37:51.653Z,6.35
2022-11-14T07:40:38.588Z,6.54
2022-11-14T07:43:25.787Z,6.81
2022-11-14T07:46:13.831Z,6.91
2022-11-14T07:49:00.157Z,6.95
2022-11-14T07:51:46.757Z,7.06
2022-11-14T07:54:34.715Z,7.12
2022-11-14T07:57:21.075Z,7.05
2022-11-14T08:00:08.912Z,7.24
2022-11-14T08:02:55.426Z,7.34
2022-11-14T08:05:41.649Z,7.37
2022-11-14T08:08:28.463Z,7.45
2022-11-14T08:11:31.600Z,7.68
2022-11-14T08:14:21.635Z,7.59
2022-11-14T08:17:08.220Z,7.78
2022-11-14T08:19:54.529Z,7.89
2022-11-14T08:22:40.968Z,8.11
2022-11-14T08:25:27.374Z,8.08
2022-11-14T08:28:15.349Z,8.26
2022-11-14T08:31:02.335Z,8.27
2022-11-14T08:33:50.251Z,7.89
2022-11-14T08:36:36.644Z,8.18
2022-11-14T08:39:22.746Z,8.36
2022-11-14T08:42:09.178Z,8.63
2022-11-14T08:44:57.000Z,8.72
2022-11-14T08:47:43.515Z,8.70
2022-11-14T08:50:29.723Z,8.85
2022-11-14T08:53:16.409Z,8.95
2022-11-14T08:56:03.011Z,9.17
2022-11-14T08:58:49.526Z,9.38
2022-11-14T09:01:37.636Z,9.00
2022-11-14T09:04:24.329Z,9.26
2022-11-14T09:07:10.972Z,9.50
2022-11-14T09:09:57.432Z,9.72
2022-11-14T09:12:44.049Z,9.89
2022-11-14T09:15:31.319Z,9.41
2022-11-14T09:18:19.357Z,9.09
2022-11-14T09:21:07.663Z,8.88
2022-11-14T09:23:58.784Z,8.86
2022-11-14T09:26:47.631Z,9.69
2022-11-14T09:29:36.114Z,10.02
2022-11-14T09:32:22.433Z,9.82
2022-11-14T09:35:10.529Z,9.68
2022-11-14T09:38:03.860Z,9.68
2022-11-14T09:41:06.033Z,10.01
2022-11-14T09:44:26.896Z,9.56
2022-11-14T09:47:20.771Z,10.37
2022-11-14T09:50:18.770Z,10.55
2022-11-14T09:53:15.700Z,10.82
2022-11-14T09:56:02.032Z,11.17
2022-11-14T09:58:48.152Z,11.47
2022-11-14T10:01:46.587Z,11.40
2022-11-14T10:04:49.982Z,11.28
2022-11-14T10:07:50.190Z,10.82
2022-11-14T10:10:52.269Z,11.13
2022-11-14T10:14:04.150Z,11.62
2022-11-14T10:16:59.626Z,11.83
2022-11-14T10:19:52.857Z,11.78
2022-11-14T10:23:00.970Z,11.45
2022-11-14T10:25:56.068Z,11.01
2022-11-14T10:29:06.949Z,11.07
2022-11-14T10:32:01.293Z,11.00
2022-11-14T10:34:54.431Z,11.15
2022-11-14T10:37:52.411Z,11.23
2022-11-14T10:40:42.417Z,11.20
2022-11-14T10:43:35.179Z,11.36
2022-11-14T10:46:26.989Z,11.44
2022-11-14T10:49:17.362Z,11.45
2022-11-14T10:52:08.581Z,11.56
2022-11-14T10:55:01.171Z,11.43
2022-11-14T10:57:47.806Z,11.46
2022-11-14T11:00:34.420Z,11.52
2022-11-14T11:03:20.650Z,11.56
2022-11-14T11:06:07.443Z,11.49
2022-11-14T11:09:11.590Z,11.49
2022-11-14T11:12:01.980Z,11.34
2022-11-14T11:14:49.791Z,11.13
2022-11-14T11:17:42.805Z,11.07
2022-11-14T11:20:33.195Z,10.92
2022-11-14T11:23:23.654Z,10.74
2022-11-14T11:26:19.218Z,10.27
2022-11-14T11:29:15.874Z,9.89
2022-11-14T11:32:02.340Z,9.76
2022-11-14T11:34:49.320Z,9.76
2022-11-14T11:37:41.062Z,9.90
2022-11-14T11:40:32.047Z,9.92
2022-11-14T11:43:42.853Z,9.89
2022-11-14T11:46:43.434Z,9.94
2022-11-14T11:49:41.631Z,9.88
2022-11-14T11:52:35.164Z,9.79
2022-11-14T11:55:24.244Z,9.89
2022-11-14T11:58:17.999Z,9.84
2022-11-14T12:01:04.651Z,9.86
2022-11-14T12:03:54.437Z,10.07
2022-11-14T12:06:47.854Z,10.48
2022-11-14T12:10:08.832Z,10.87
2022-11-14T12:13:15.859Z,10.89
2022-11-14T12:16:18.346Z,10.68
2022-11-14T12:19:37.446Z,10.96
2022-11-14T12:22:48.558Z,11.28
2022-11-14T12:26:03.324Z,11.41
2022-11-14T12:29:09.488Z,11.66
2022-11-14T12:32:03.808Z,11.83
2022-11-14T12:34:52.339Z,11.65
2022-11-14T12:37:45.257Z,11.95
2022-11-14T12:40:34.386Z,12.01
2022-11-14T12:43:36.056Z,12.11
2022-11-14T12:46:23.085Z,12.34
2022-11-14T12:49:39.247Z,12.46
2022-11-14T12:52:48.832Z,12.61
2022-11-14T12:55:56.596Z,12.70
2022-11-14T12:59:05.557Z,12.71
2022-11-14T13:02:09.811Z,12.65
2022-11-14T13:05:10.394Z,12.64
2022-11-14T13:08:17.935Z,12.33
2022-11-14T13:11:57.601Z,12.01
2022-11-14T13:15:09.348Z,11.72
2022-11-14T13:18:23.100Z,11.61
2022-11-14T13:21:44.810Z,11.60
2022-11-14T13:25:20.316Z,11.77
2022-11-14T13:28:40.061Z,11.78
2022-11-14T13:31:43.622Z,11.75
2022-11-14T13:34:37.259Z,11.92
2022-11-14T13:37:51.931Z,11.94
2022-11-14T13:40:45.854Z,11.84
2022-11-14T13:43:45.746Z,11.80
2022-11-14T13:46:49.894Z,11.94
2022-11-14T13:49:55.055Z,11.98
2022-11-14T13:52:43.832Z,11.94
2022-11-14T13:55:39.231Z,11.98
2022-11-14T13:58:43.499Z,12.57
2022-11-14T14:01:46.275Z,13.03
2022-11-14T14:04:49.904Z,13.47
2022-11-14T14:07:51.800Z,13.78
2022-11-14T14:10:44.222Z,13.92
2022-11-14T14:13:52.417Z,13.95
2022-11-14T14:16:52.549Z,13.38
2022-11-14T14:19:55.198Z,12.73
2022-11-14T14:22:48.728Z,12.48
2022-11-14T14:25:45.053Z,12.37
2022-11-14T14:28:44.630Z,12.22
2022-11-14T14:31:36.970Z,12.46
2022-11-14T14:34:25.765Z,12.76
2022-11-14T14:37:19.577Z,12.88
2022-11-14T14:40:11.125Z,12.93
2022-11-14T14:42:58.045Z,12.62
2022-11-14T14:45:52.369Z,12.22
2022-11-14T14:48:43.026Z,11.81
2022-11-14T14:51:34.844Z,11.45
2022-11-14T14:54:23.103Z,11.18
2022-11-14T14:57:21.381Z,10.87
2022-11-14T15:00:20.122Z,10.69
2022-11-14T15:03:10.886Z,10.54
2022-11-14T15:06:01.996Z,10.41
2022-11-14T15:08:48.966Z,10.31
2022-11-14T15:11:36.132Z,10.17
2022-11-14T15:14:25.617Z,10.06
2022-11-14T15:17:13.644Z,9.98
2022-11-14T15:20:01.369Z,9.97
2022-11-14T15:23:06.265Z,9.78
2022-11-14T15:26:03.086Z,9.57
2022-11-14T15:28:49.547Z,9.47
2022-11-14T15:31:37.373Z,9.35
2022-11-14T15:34:26.877Z,9.21
2022-11-14T15:37:23.129Z,9.11
2022-11-14T15:40:18.901Z,9.10
2022-11-14T15:43:38.940Z,9.08
2022-11-14T15:46:34.020Z,9.10
2022-11-14T15:49:25.664Z,9.06
2022-11-14T15:52:23.439Z,9.06
2022-11-14T15:55:17.156Z,9.09
2022-11-14T16:01:16.953Z,9.08
2022-11-14T16:04:04.061Z,9.05
2022-11-14T16:06:50.705Z,9.01
2022-11-14T16:09:38.509Z,8.99
2022-11-14T16:12:24.974Z,8.89
2022-11-14T16:15:12.312Z,8.87
2022-11-14T16:17:58.561Z,8.83
2022-11-14T16:20:45.287Z,8.80
2022-11-14T16:23:32.146Z,8.82
2022-11-14T16:26:20.446Z,8.80
2022-11-14T16:29:07.821Z,8.79
2022-11-14T16:31:55.263Z,8.81
2022-11-14T16:34:41.997Z,10.25
2022-11-14T16:37:28.286Z,10.73
2022-11-14T16:40:16.833Z,10.66
2022-11-14T16:43:04.793Z,9.99
2022-11-14T16:45:50.987Z,9.54
2022-11-14T16:48:37.638Z,9.19
2022-11-14T16:54:30.640Z,8.80
2022-11-14T16:57:17.143Z,8.69
2022-11-14T17:00:09.532Z,8.51
2022-11-14T17:02:56.084Z,8.43
2022-11-14T17:05:44.312Z,8.33
2022-11-14T17:08:30.611Z,8.28
2022-11-14T17:11:17.117Z,8.26
2022-11-14T17:14:03.974Z,8.23
2022-11-14T17:16:51.931Z,8.21
2022-11-14T17:19:40.115Z,8.24
2022-11-14T17:22:26.510Z,8.19
2022-11-14T17:25:13.273Z,8.14
2022-11-14T17:27:59.672Z,8.10
2022-11-14T17:30:46.288Z,8.03
2022-11-14T17:33:34.348Z,8.03
2022-11-14T17:36:20.824Z,8.02
2022-11-14T17:39:07.656Z,7.90
2022-11-14T17:41:54.319Z,7.78
2022-11-14T17:44:41.429Z,7.76
2022-11-14T17:47:27.716Z,7.74
2022-11-14T17:50:17.019Z,7.72
2022-11-14T17:53:03.739Z,7.70
2022-11-14T17:55:57.234Z,7.65
2022-11-14T17:58:44.254Z,7.64
2022-11-14T18:01:32.549Z,7.60
2022-11-14T18:04:19.040Z,7.50
2022-11-14T18:07:06.754Z,7.45
2022-11-14T18:09:53.320Z,7.34
2022-11-14T18:12:40.415Z,7.29
2022-11-14T18:15:28.331Z,7.28
2022-11-14T18:18:14.927Z,7.37
2022-11-14T18:21:07.568Z,7.44
2022-11-14T18:23:57.158Z,7.38
2022-11-14T18:26:43.597Z,7.12
2022-11-14T18:29:32.564Z,7.04
2022-11-14T18:32:19.157Z,7.02
2022-11-14T18:35:06.355Z,7.05
2022-11-14T18:37:53.010Z,7.14
2022-11-14T18:40:44.433Z,7.23
2022-11-14T18:43:32.746Z,7.28
2022-11-14T18:46:21.704Z,7.35
2022-11-14T18:49:09.040Z,7.31
2022-11-14T18:51:56.392Z,7.28
2022-11-14T18:54:42.830Z,7.19
2022-11-14T18:57:30.672Z,7.15
2022-11-14T19:00:17.771Z,7.10
2022-11-14T19:03:06.430Z,7.01
2022-11-14T19:05:53.082Z,6.91
2022-11-14T19:08:40.199Z,6.84
2022-11-14T19:11:44.773Z,6.87
2022-11-14T19:14:32.687Z,6.88
2022-11-14T19:17:21.031Z,6.64
2022-11-14T19:20:14.560Z,6.51
2022-11-14T19:23:01.379Z,6.61
2022-11-14T19:25:48.197Z,6.70
2022-11-14T19:28:35.377Z,6.66
2022-11-14T19:31:24.364Z,6.37
2022-11-14T19:34:11.242Z,6.05
2022-11-14T19:37:00.346Z,5.84
2022-11-14T19:39:47.710Z,5.70
2022-11-14T19:42:34.106Z,5.67
2022-11-14T19:45:20.781Z,5.48
2022-11-14T19:48:08.578Z,5.38
2022-11-14T19:51:00.431Z,5.38
2022-11-14T19:53:47.451Z,5.38
2022-11-14T19:56:33.756Z,5.41
2022-11-14T19:59:24.445Z,5.46
2022-11-14T20:02:14.254Z,5.43
2022-11-14T20:05:02.074Z,5.48
2022-11-14T20:07:48.687Z,5.54
2022-11-14T20:10:47.670Z,5.49
2022-11-14T20:13:36.580Z,5.58
2022-11-14T20:16:25.443Z,5.65
2022-11-14T20:19:13.577Z,5.56
2022-11-14T20:22:01.750Z,5.58
2022-11-14T20:24:48.442Z,5.56
2022-11-14T20:27:35.088Z,5.54
2022-11-14T20:30:21.946Z,5.46
2022-11-14T20:33:09.205Z,5.46
2022-11-14T20:35:56.024Z,5.42
2022-11-14T20:38:44.667Z,5.40
2022-11-14T20:41:31.027Z,5.39
2022-11-14T20:44:18.894Z,5.31
2022-11-14T20:47:09.854Z,5.23
2022-11-14T20:49:57.666Z,5.23
2022-11-14T20:52:46.759Z,5.36
2022-11-14T20:55:34.439Z,5.33
2022-11-14T20:58:21.378Z,5.21
2022-11-14T21:01:08.263Z,5.12
2022-11-14T21:03:55.112Z,5.05
2022-11-14T21:06:41.720Z,5.05
2022-11-14T21:09:28.154Z,5.02
2022-11-14T21:12:16.146Z,4.97
2022-11-14T21:15:02.642Z,4.90
2022-11-14T21:17:49.314Z,4.97
2022-11-14T21:20:35.841Z,5.07
2022-11-14T21:23:21.934Z,5.11
2022-11-14T21:26:11.029Z,5.16
2022-11-14T21:29:00.777Z,5.10
2022-11-14T21:31:47.631Z,5.12
2022-11-14T21:34:34.151Z,5.17
2022-11-14T21:37:20.765Z,5.14
2022-11-14T21:40:07.977Z,5.24
2022-11-14T21:42:55.123Z,5.29
2022-11-14T21:45:43.011Z,5.34
2022-11-14T21:48:31.689Z,5.33
2022-11-14T21:51:21.014Z,5.31
2022-11-14T21:54:07.526Z,5.27
2022-11-14T21:56:53.729Z,5.29
2022-11-14T21:59:40.404Z,5.34
2022-11-14T22:02:45.763Z,5.14
2022-11-14T22:05:36.199Z,4.88
2022-11-14T22:08:22.774Z,4.84
2022-11-14T22:11:09.167Z,4.90
2022-11-14T22:13:55.998Z,4.87
2022-11-14T22:16:42.374Z,4.84
2022-11-14T22:19:30.143Z,4.99
2022-11-14T22:22:16.510Z,5.08
2022-11-14T22:25:03.121Z,5.18
2022-11-14T22:27:49.539Z,5.28
2022-11-14T22:30:36.088Z,5.35
2022-11-14T22:33:22.556Z,5.45
2022-11-14T22:36:13.044Z,5.40
2022-11-14T22:38:59.253Z,5.42
2022-11-14T22:41:45.729Z,5.51
2022-11-14T22:44:32.475Z,5.48
2022-11-14T22:47:18.648Z,5.45
2022-11-14T22:50:05.912Z,5.46
2022-11-14T22:52:55.728Z,5.48
2022-11-14T22:55:48.083Z,5.49
2022-11-14T22:58:36.706Z,5.41
2022-11-14T23:01:25.491Z,5.35
2022-11-14T23:04:11.703Z,5.48
2022-11-14T23:06:58.009Z,5.57
2022-11-14T23:09:45.728Z,5.58
2022-11-14T23:12:31.995Z,5.58
2022-11-14T23:15:18.474Z,5.57
2022-11-14T23:18:06.472Z,5.38
2022-11-14T23:20:52.918Z,4.98
2022-11-14T23:23:39.843Z,4.93
2022-11-14T23:26:29.782Z,4.78
2022-11-14T23:29:16.330Z,4.60
2022-11-14T23:32:02.803Z,4.43
2022-11-14T23:34:49.331Z,4.26
2022-11-14T23:37:36.313Z,4.16
2022-11-14T23:40:22.583Z,4.19
2022-11-14T23:43:10.542Z,4.13
2022-11-14T23:45:57.269Z,4.13
2022-11-14T23:48:43.548Z,4.22
2022-11-14T23:51:29.831Z,4.23
2022-11-14T23:54:16.131Z,4.33
2022-11-14T23:57:04.573Z,4.40
2022-11-14T23:59:52.377Z,4.45
